M/V Lady Of Prompt Succor — WDD9441 — position and weather

sailwx.info

Track history (hours):
 
Tides and Currents Weather Stations Pressure Air Temp Water Temp Dewpoint Dewpoint Depression Visibility Wind Speed Wind Dir Waves Ship Positions

M/V Lady Of Prompt Succor

Owner: Marquette Transportation Company Gulf-Inland, LLC, Jefferson, LA. More information available from US FCC via Universal Licensing System and Coast Guard Vessel Documentation Center.

Last reported at 2017-Sep-25 05:30 UTC. Time now 2017-Sep-26 16:38 UTC.
Position N 29°30' W 094°52'.

Length 117 m; draft 3 m.

Type: Towing. MMSI: 367311490.

Date/timePositionNaut miles runAvg speedWind from/ knotsBaromVisibWave heightAir tempDewpointWater temp
2017-Sep-25 05:30N 29°30' W 094°52'3 6.4
2017-Sep-25 04:59N 29°33' W 094°54'3 6.4
2017-Sep-25 04:30N 29°35' W 094°56'3 6.4
2017-Sep-25 03:59N 29°38' W 094°58'3 6.5
2017-Sep-25 03:30N 29°41' W 094°59'3 5.4
2017-Sep-25 03:00N 29°43' W 095°01'3 6.1
2017-Sep-25 02:30N 29°45' W 095°04'1 1.3
2017-Sep-25 01:38N 29°46' W 095°05'0 0.0
2017-Sep-25 01:13N 29°46' W 095°05'0 0.0
2017-Sep-25 00:48N 29°46' W 095°05'0 0.0
2017-Sep-25 00:24N 29°46' W 095°05'0 0.0
2017-Sep-24 23:53N 29°46' W 095°05'0 0.0
2017-Sep-24 20:21N 29°46' W 095°05'0 0.2
2017-Sep-24 19:59N 29°46' W 095°05'1 2.2
2017-Sep-24 19:30N 29°45' W 095°05'  
2017-Sep-20 23:11N 29°30' W 094°52'1 6.8
2017-Sep-20 22:59N 29°31' W 094°53'3 6.8
2017-Sep-20 22:30N 29°34' W 094°55'3 6.8
2017-Sep-20 22:00N 29°37' W 094°57'4 7.4
2017-Sep-20 21:30N 29°40' W 094°59'3 6.8
2017-Sep-20 21:00N 29°43' W 095°01'3 6.3
2017-Sep-20 20:29N 29°45' W 095°04'2 1.1
2017-Sep-20 18:45N 29°46' W 095°06'0 0.0
2017-Sep-19 11:58N 29°46' W 095°06'1 2.2
2017-Sep-19 11:30N 29°46' W 095°05'0 0.2
2017-Sep-19 11:00N 29°46' W 095°05'0 0.0
2017-Sep-19 10:30N 29°46' W 095°05'0 0.1
2017-Sep-19 09:58N 29°46' W 095°05'2 4.9
2017-Sep-19 09:30N 29°44' W 095°03'2 4.6
2017-Sep-19 09:00N 29°43' W 095°01'2 4.8
2017-Sep-19 08:30N 29°41' W 094°59'3 6.1
2017-Sep-19 08:00N 29°39' W 094°58'3 6.4
2017-Sep-19 07:30N 29°36' W 094°57'3 6.6
2017-Sep-19 07:00N 29°33' W 094°54'3 6.4
2017-Sep-19 06:30N 29°30' W 094°52'59 1.2
2017-Sep-17 03:10N 29°59' W 093°53'1 5.7
2017-Sep-17 03:00N 29°59' W 093°52'3 5.8
2017-Sep-17 02:28N 29°56' W 093°53'2 5.1
2017-Sep-17 02:00N 29°54' W 093°54'56 4.8
2017-Sep-16 14:26N 29°30' W 094°52'3 7.3
2017-Sep-16 14:00N 29°32' W 094°54'3 6.9
2017-Sep-16 13:30N 29°35' W 094°56'3 6.7
2017-Sep-16 13:00N 29°38' W 094°58'3 6.7
2017-Sep-16 12:30N 29°42' W 094°59'3 6.0
2017-Sep-16 12:00N 29°44' W 095°02'3 6.2
2017-Sep-16 11:29N 29°46' W 095°05'1 0.1
2017-Sep-15 13:52N 29°45' W 095°06'1 1.4
2017-Sep-15 13:30N 29°46' W 095°05'3 4.8
2017-Sep-15 12:58N 29°44' W 095°03'2 5.4
2017-Sep-15 12:31N 29°42' W 095°01'3 5.6
2017-Sep-15 12:01N 29°41' W 094°59'3 6.6
2017-Sep-15 11:31N 29°37' W 094°57'3 6.7
2017-Sep-15 11:01N 29°34' W 094°56'4 7.1
2017-Sep-15 10:30N 29°31' W 094°53'  
Track history (hours):
 
Tides and Currents Weather Stations Pressure Air Temp Water Temp Dewpoint Dewpoint Depression Visibility Wind Speed Wind Dir Waves Ship Positions

M/V Lady Of Prompt Succor

Owner: Marquette Transportation Company Gulf-Inland, LLC, Jefferson, LA. More information available from US FCC via Universal Licensing System and Coast Guard Vessel Documentation Center.

Last reported at 2017-Sep-25 05:30 UTC. Time now 2017-Sep-26 16:38 UTC.
Position N 29°30' W 094°52'.

Length 117 m; draft 3 m.

Type: Towing. MMSI: 367311490.

Date/timePositionNaut miles runAvg speedWind from/ knotsBaromVisibWave heightAir tempDewpointWater temp
2017-Sep-25 05:30N 29°30' W 094°52'3 6.4
2017-Sep-25 04:59N 29°33' W 094°54'3 6.4
2017-Sep-25 04:30N 29°35' W 094°56'3 6.4
2017-Sep-25 03:59N 29°38' W 094°58'3 6.5
2017-Sep-25 03:30N 29°41' W 094°59'3 5.4
2017-Sep-25 03:00N 29°43' W 095°01'3 6.1
2017-Sep-25 02:30N 29°45' W 095°04'1 1.3
2017-Sep-25 01:38N 29°46' W 095°05'0 0.0
2017-Sep-25 01:13N 29°46' W 095°05'0 0.0
2017-Sep-25 00:48N 29°46' W 095°05'0 0.0
2017-Sep-25 00:24N 29°46' W 095°05'0 0.0
2017-Sep-24 23:53N 29°46' W 095°05'0 0.0
2017-Sep-24 20:21N 29°46' W 095°05'0 0.2
2017-Sep-24 19:59N 29°46' W 095°05'1 2.2
2017-Sep-24 19:30N 29°45' W 095°05'  
2017-Sep-20 23:11N 29°30' W 094°52'1 6.8
2017-Sep-20 22:59N 29°31' W 094°53'3 6.8
2017-Sep-20 22:30N 29°34' W 094°55'3 6.8
2017-Sep-20 22:00N 29°37' W 094°57'4 7.4
2017-Sep-20 21:30N 29°40' W 094°59'3 6.8
2017-Sep-20 21:00N 29°43' W 095°01'3 6.3
2017-Sep-20 20:29N 29°45' W 095°04'2 1.1
2017-Sep-20 18:45N 29°46' W 095°06'0 0.0
2017-Sep-19 11:58N 29°46' W 095°06'1 2.2
2017-Sep-19 11:30N 29°46' W 095°05'0 0.2
2017-Sep-19 11:00N 29°46' W 095°05'0 0.0
2017-Sep-19 10:30N 29°46' W 095°05'0 0.1
2017-Sep-19 09:58N 29°46' W 095°05'2 4.9
2017-Sep-19 09:30N 29°44' W 095°03'2 4.6
2017-Sep-19 09:00N 29°43' W 095°01'2 4.8
2017-Sep-19 08:30N 29°41' W 094°59'3 6.1
2017-Sep-19 08:00N 29°39' W 094°58'3 6.4
2017-Sep-19 07:30N 29°36' W 094°57'3 6.6
2017-Sep-19 07:00N 29°33' W 094°54'3 6.4
2017-Sep-19 06:30N 29°30' W 094°52'59 1.2
2017-Sep-17 03:10N 29°59' W 093°53'1 5.7
2017-Sep-17 03:00N 29°59' W 093°52'3 5.8
2017-Sep-17 02:28N 29°56' W 093°53'2 5.1
2017-Sep-17 02:00N 29°54' W 093°54'56 4.8
2017-Sep-16 14:26N 29°30' W 094°52'3 7.3
2017-Sep-16 14:00N 29°32' W 094°54'3 6.9
2017-Sep-16 13:30N 29°35' W 094°56'3 6.7
2017-Sep-16 13:00N 29°38' W 094°58'3 6.7
2017-Sep-16 12:30N 29°42' W 094°59'3 6.0
2017-Sep-16 12:00N 29°44' W 095°02'3 6.2
2017-Sep-16 11:29N 29°46' W 095°05'1 0.1
2017-Sep-15 13:52N 29°45' W 095°06'1 1.4
2017-Sep-15 13:30N 29°46' W 095°05'3 4.8
2017-Sep-15 12:58N 29°44' W 095°03'2 5.4
2017-Sep-15 12:31N 29°42' W 095°01'3 5.6
2017-Sep-15 12:01N 29°41' W 094°59'3 6.6
2017-Sep-15 11:31N 29°37' W 094°57'3 6.7
2017-Sep-15 11:01N 29°34' W 094°56'4 7.1
2017-Sep-15 10:30N 29°31' W 094°53'  

Dump ship's entire track history